Time,TemperatureF,DewpointF,PressureIn,WindDirection,WindDirectionDegrees,WindSpeedMPH,WindSpeedGustMPH,Humidity,HourlyPrecipIn,Conditions,Clouds,dailyrainin,SolarRadiationWatts/m^2,SoftwareType,DateUTC
2013-02-16 00:02:00,33.0,29.0,30.36,WNW,291,5.0,14.0,84,0.00,,,0.11,0.000000,,2013-02-16 05:02:00,
2013-02-16 00:32:00,32.0,29.0,30.34,NNW,339,2.0,10.0,90,0.00,,,0.11,0.000000,,2013-02-16 05:32:00,
2013-02-16 00:42:00,32.0,29.0,30.34,NNW,339,2.0,10.0,90,0.00,,,0.11,0.000000,,2013-02-16 05:42:00,
2013-02-16 00:52:00,32.0,29.0,30.34,NNW,339,2.0,10.0,90,0.00,,,0.11,0.000000,,2013-02-16 05:52:00,
2013-02-16 01:02:00,32.0,29.0,30.34,NNW,339,2.0,10.0,90,0.00,,,0.11,0.000000,,2013-02-16 06:02:00,
2013-02-16 01:32:00,31.0,29.0,30.32,WNW,287,5.0,9.0,91,0.00,,,0.11,0.000000,,2013-02-16 06:32:00,
2013-02-16 01:42:00,31.0,29.0,30.32,WNW,287,5.0,9.0,91,0.00,,,0.11,0.000000,,2013-02-16 06:42:00,
2013-02-16 01:52:00,31.0,29.0,30.32,WNW,287,5.0,9.0,91,0.00,,,0.11,0.000000,,2013-02-16 06:52:00,
2013-02-16 02:02:00,31.0,29.0,30.32,WNW,287,5.0,9.0,91,0.00,,,0.11,0.000000,,2013-02-16 07:02:00,
2013-02-16 02:32:00,31.0,28.0,30.30,NW,307,2.0,8.0,90,0.00,,,0.11,0.000000,,2013-02-16 07:32:00,
2013-02-16 02:42:00,31.0,28.0,30.30,NW,307,2.0,8.0,90,0.00,,,0.11,0.000000,,2013-02-16 07:42:00,
2013-02-16 02:53:00,31.0,28.0,30.30,NW,307,2.0,8.0,90,0.00,,,0.11,0.000000,,2013-02-16 07:53:00,
2013-02-16 03:01:00,31.0,28.0,30.30,NW,307,2.0,8.0,90,0.00,,,0.11,0.000000,,2013-02-16 08:01:00,
2013-02-16 03:32:00,30.0,27.0,30.28,NE,51,1.0,5.0,90,0.00,,,0.11,0.000000,,2013-02-16 08:32:00,
2013-02-16 03:42:00,30.0,27.0,30.28,NE,51,1.0,5.0,90,0.00,,,0.11,0.000000,,2013-02-16 08:42:00,
2013-02-16 03:52:00,30.0,27.0,30.28,NE,51,1.0,5.0,90,0.00,,,0.11,0.000000,,2013-02-16 08:52:00,
2013-02-16 04:02:00,30.0,27.0,30.28,NE,51,1.0,5.0,90,0.00,,,0.11,0.000000,,2013-02-16 09:02:00,
2013-02-16 05:32:00,30.0,28.0,30.25,WNW,293,1.0,3.0,91,-99.99,,,0.11,0.000000,,2013-02-16 10:32:00,
2013-02-16 05:42:00,30.0,28.0,30.25,WNW,293,1.0,3.0,91,-99.99,,,0.11,0.000000,,2013-02-16 10:42:00,
2013-02-16 05:52:00,30.0,28.0,30.25,WNW,293,1.0,3.0,91,-99.99,,,0.11,0.000000,,2013-02-16 10:52:00,
2013-02-16 06:02:00,30.0,28.0,30.25,WNW,293,1.0,3.0,91,-99.99,,,0.11,0.000000,,2013-02-16 11:02:00,
2013-02-16 06:32:00,30.0,28.0,30.25,SSW,204,1.0,4.0,91,0.00,,,0.11,0.000000,,2013-02-16 11:32:00,
2013-02-16 06:42:00,30.0,28.0,30.25,SSW,204,1.0,4.0,91,0.00,,,0.11,0.000000,,2013-02-16 11:42:00,
2013-02-16 06:52:00,30.0,28.0,30.25,SSW,204,1.0,4.0,91,0.00,,,0.11,0.000000,,2013-02-16 11:52:00,
2013-02-16 07:02:00,30.0,28.0,30.25,SSW,204,1.0,4.0,91,0.00,,,0.11,0.000000,,2013-02-16 12:02:00,
2013-02-16 07:32:00,30.0,28.0,30.24,NW,306,1.0,5.0,91,0.00,,,0.11,0.000000,,2013-02-16 12:32:00,
2013-02-16 07:42:00,30.0,28.0,30.24,NW,306,1.0,5.0,91,0.00,,,0.11,0.000000,,2013-02-16 12:42:00,
2013-02-16 07:52:00,30.0,28.0,30.24,NW,306,1.0,5.0,91,0.00,,,0.11,0.000000,,2013-02-16 12:52:00,
2013-02-16 08:02:00,30.0,28.0,30.24,NW,306,1.0,5.0,91,0.00,,,0.11,0.000000,,2013-02-16 13:02:00,
2013-02-16 09:32:00,32.0,26.0,30.23,WNW,289,7.0,13.0,77,-99.99,,,0.11,90.000000,,2013-02-16 14:32:00,
2013-02-16 09:42:00,32.0,26.0,30.23,WNW,289,7.0,13.0,77,-99.99,,,0.11,90.000000,,2013-02-16 14:42:00,
2013-02-16 09:52:00,32.0,26.0,30.23,WNW,289,7.0,13.0,77,-99.99,,,0.11,90.000000,,2013-02-16 14:52:00,
2013-02-16 10:02:00,32.0,26.0,30.23,WNW,289,7.0,13.0,77,-99.99,,,0.11,90.000000,,2013-02-16 15:02:00,
2013-02-16 10:32:00,34.0,25.0,30.22,SE,145,3.0,15.0,68,0.00,,,0.11,149.000000,,2013-02-16 15:32:00,
2013-02-16 10:42:00,34.0,25.0,30.22,SE,145,3.0,15.0,68,0.00,,,0.11,149.000000,,2013-02-16 15:42:00,
2013-02-16 10:52:00,34.0,25.0,30.22,SE,145,3.0,15.0,68,0.00,,,0.11,149.000000,,2013-02-16 15:52:00,
2013-02-16 11:02:00,34.0,25.0,30.22,SE,145,3.0,15.0,68,0.00,,,0.11,149.000000,,2013-02-16 16:02:00,
2013-02-16 11:32:00,32.0,25.0,30.22,WNW,289,10.0,18.0,75,0.00,,,0.10,236.000000,,2013-02-16 16:32:00,
2013-02-16 11:42:00,32.0,25.0,30.22,WNW,289,10.0,18.0,75,0.00,,,0.10,236.000000,,2013-02-16 16:42:00,
2013-02-16 11:52:00,32.0,25.0,30.22,WNW,289,10.0,18.0,75,0.00,,,0.10,236.000000,,2013-02-16 16:52:00,
2013-02-16 12:01:00,32.0,25.0,30.22,WNW,289,10.0,18.0,75,0.00,,,0.10,236.000000,,2013-02-16 17:01:00,
2013-02-16 12:32:00,34.0,27.0,30.22,NW,310,7.0,20.0,74,0.00,,,0.10,230.000000,,2013-02-16 17:32:00,
2013-02-16 12:42:00,34.0,27.0,30.22,NW,310,7.0,20.0,74,0.00,,,0.10,230.000000,,2013-02-16 17:42:00,
2013-02-16 12:52:00,34.0,27.0,30.22,NW,310,7.0,20.0,74,0.00,,,0.10,230.000000,,2013-02-16 17:52:00,
2013-02-16 13:02:00,34.0,27.0,30.22,NW,310,7.0,20.0,74,0.00,,,0.10,230.000000,,2013-02-16 18:02:00,
2013-02-16 13:33:00,32.0,26.0,30.21,NW,317,5.0,21.0,78,0.00,,,0.10,217.000000,,2013-02-16 18:33:00,
2013-02-16 13:42:00,32.0,26.0,30.21,NW,317,5.0,21.0,78,0.00,,,0.10,217.000000,,2013-02-16 18:42:00,
2013-02-16 13:52:00,32.0,26.0,30.21,NW,317,5.0,21.0,78,0.00,,,0.10,217.000000,,2013-02-16 18:52:00,
2013-02-16 14:02:00,32.0,26.0,30.21,NW,317,5.0,21.0,78,0.00,,,0.10,217.000000,,2013-02-16 19:02:00,
2013-02-16 14:32:00,36.0,24.0,30.19,WNW,302,8.0,25.0,62,0.00,,,0.10,335.000000,,2013-02-16 19:32:00,
2013-02-16 14:42:00,36.0,24.0,30.19,WNW,302,8.0,25.0,62,0.00,,,0.10,335.000000,,2013-02-16 19:42:00,
2013-02-16 14:52:00,36.0,24.0,30.19,WNW,302,8.0,25.0,62,0.00,,,0.10,335.000000,,2013-02-16 19:52:00,
2013-02-16 15:01:00,36.0,24.0,30.19,WNW,302,8.0,25.0,62,0.00,,,0.10,335.000000,,2013-02-16 20:01:00,
2013-02-16 15:32:00,34.0,15.0,30.19,WNW,302,10.0,29.0,45,0.00,,,0.10,459.000000,,2013-02-16 20:32:00,
2013-02-16 15:42:00,34.0,15.0,30.19,WNW,302,10.0,29.0,45,0.00,,,0.10,459.000000,,2013-02-16 20:42:00,
2013-02-16 15:52:00,34.0,15.0,30.19,WNW,302,10.0,29.0,45,0.00,,,0.10,459.000000,,2013-02-16 20:52:00,
2013-02-16 16:02:00,34.0,15.0,30.19,WNW,302,10.0,29.0,45,0.00,,,0.10,459.000000,,2013-02-16 21:02:00,
2013-02-16 16:32:00,33.0,13.0,30.20,SSW,207,4.0,21.0,43,0.00,,,0.08,221.000000,,2013-02-16 21:32:00,
2013-02-16 16:42:00,33.0,13.0,30.20,SSW,207,4.0,21.0,43,0.00,,,0.08,221.000000,,2013-02-16 21:42:00,
2013-02-16 16:52:00,33.0,13.0,30.20,SSW,207,4.0,21.0,43,0.00,,,0.08,221.000000,,2013-02-16 21:52:00,
2013-02-16 17:01:00,33.0,13.0,30.20,SSW,207,4.0,21.0,43,0.00,,,0.08,221.000000,,2013-02-16 22:01:00,
2013-02-16 17:32:00,32.0,12.0,30.21,WNW,294,16.0,29.0,42,0.00,,,0.03,166.000000,,2013-02-16 22:32:00,
2013-02-16 17:42:00,32.0,12.0,30.21,WNW,294,16.0,29.0,42,0.00,,,0.03,166.000000,,2013-02-16 22:42:00,
2013-02-16 17:52:00,32.0,12.0,30.21,WNW,294,16.0,29.0,42,0.00,,,0.03,166.000000,,2013-02-16 22:52:00,
2013-02-16 18:02:00,32.0,12.0,30.21,WNW,294,16.0,29.0,42,0.00,,,0.03,166.000000,,2013-02-16 23:02:00,
2013-02-16 18:32:00,27.0,9.0,30.22,ENE,72,6.0,27.0,47,0.00,,,0.03,95.000000,,2013-02-16 23:32:00,
2013-02-16 18:42:00,27.0,9.0,30.22,ENE,72,6.0,27.0,47,0.00,,,0.03,95.000000,,2013-02-16 23:42:00,
2013-02-16 18:52:00,27.0,9.0,30.22,ENE,72,6.0,27.0,47,0.00,,,0.03,95.000000,,2013-02-16 23:52:00,
2013-02-16 19:02:00,27.0,9.0,30.22,ENE,72,6.0,27.0,47,0.00,,,0.03,95.000000,,2013-02-17 00:02:00,
2013-02-16 19:32:00,27.0,13.0,30.25,WSW,242,4.0,27.0,54,0.00,,,0.00,1.000000,,2013-02-17 00:32:00,
2013-02-16 19:42:00,27.0,13.0,30.25,WSW,242,4.0,27.0,54,0.00,,,0.00,1.000000,,2013-02-17 00:42:00,
2013-02-16 19:52:00,27.0,13.0,30.25,WSW,242,4.0,27.0,54,0.00,,,0.00,1.000000,,2013-02-17 00:52:00,
2013-02-16 20:01:00,27.0,13.0,30.25,WSW,242,4.0,27.0,54,0.00,,,0.00,1.000000,,2013-02-17 01:01:00,
2013-02-16 21:32:00,24.0,18.0,30.29,WNW,303,6.0,20.0,77,-99.99,,,0.00,0.000000,,2013-02-17 02:32:00,
2013-02-16 21:42:00,24.0,18.0,30.29,WNW,303,6.0,20.0,77,-99.99,,,0.00,0.000000,,2013-02-17 02:42:00,
2013-02-16 21:52:00,24.0,18.0,30.29,WNW,303,6.0,20.0,77,-99.99,,,0.00,0.000000,,2013-02-17 02:52:00,
2013-02-16 22:02:00,24.0,18.0,30.29,WNW,303,6.0,20.0,77,-99.99,,,0.00,0.000000,,2013-02-17 03:02:00,
2013-02-16 22:32:00,24.0,15.0,30.30,NW,307,7.0,23.0,67,0.00,,,0.00,0.000000,,2013-02-17 03:32:00,
2013-02-16 22:42:00,24.0,15.0,30.30,NW,307,7.0,23.0,67,0.00,,,0.00,0.000000,,2013-02-17 03:42:00,
2013-02-16 22:52:00,24.0,15.0,30.30,NW,307,7.0,23.0,67,0.00,,,0.00,0.000000,,2013-02-17 03:52:00,
2013-02-16 23:01:00,24.0,15.0,30.30,NW,307,7.0,23.0,67,0.00,,,0.00,0.000000,,2013-02-17 04:01:00,
2013-02-16 23:32:00,24.0,14.0,30.30,NW,306,7.0,29.0,64,0.00,,,0.00,0.000000,,2013-02-17 04:32:00,
2013-02-16 23:42:00,24.0,14.0,30.30,NW,306,7.0,29.0,64,0.00,,,0.00,0.000000,,2013-02-17 04:42:00,
2013-02-16 23:52:00,24.0,14.0,30.30,NW,306,7.0,29.0,64,0.00,,,0.00,0.000000,,2013-02-17 04:52:00,